sensor_id;sensor_type;location;lat;lon;timestamp;P1;durP1;ratioP1;P2;durP2;ratioP2
55455;SDS011;63021;52.836;6.376;2024-03-22T00:01:57;34.88;;;25.05;;
55455;SDS011;63021;52.836;6.376;2024-03-22T00:04:25;36.25;;;25.30;;
55455;SDS011;63021;52.836;6.376;2024-03-22T00:06:54;35.55;;;25.58;;
55455;SDS011;63021;52.836;6.376;2024-03-22T00:09:19;37.15;;;27.25;;
55455;SDS011;63021;52.836;6.376;2024-03-22T00:11:47;40.33;;;26.08;;
55455;SDS011;63021;52.836;6.376;2024-03-22T00:14:13;38.28;;;25.95;;
55455;SDS011;63021;52.836;6.376;2024-03-22T00:16:38;40.75;;;26.83;;
55455;SDS011;63021;52.836;6.376;2024-03-22T00:19:04;40.30;;;27.58;;
55455;SDS011;63021;52.836;6.376;2024-03-22T00:21:29;41.97;;;28.50;;
55455;SDS011;63021;52.836;6.376;2024-03-22T00:23:56;41.85;;;28.15;;
55455;SDS011;63021;52.836;6.376;2024-03-22T00:26:22;43.53;;;29.45;;
55455;SDS011;63021;52.836;6.376;2024-03-22T00:28:47;40.05;;;27.88;;
55455;SDS011;63021;52.836;6.376;2024-03-22T00:31:14;44.35;;;27.35;;
55455;SDS011;63021;52.836;6.376;2024-03-22T00:33:42;46.50;;;30.95;;
55455;SDS011;63021;52.836;6.376;2024-03-22T00:36:10;45.35;;;29.38;;
55455;SDS011;63021;52.836;6.376;2024-03-22T00:38:36;46.00;;;31.10;;
55455;SDS011;63021;52.836;6.376;2024-03-22T00:41:01;47.40;;;31.38;;
55455;SDS011;63021;52.836;6.376;2024-03-22T00:43:27;43.70;;;31.63;;
55455;SDS011;63021;52.836;6.376;2024-03-22T00:45:55;48.25;;;31.98;;
55455;SDS011;63021;52.836;6.376;2024-03-22T00:48:21;45.10;;;30.52;;
55455;SDS011;63021;52.836;6.376;2024-03-22T00:50:47;43.90;;;30.85;;
55455;SDS011;63021;52.836;6.376;2024-03-22T00:53:12;48.47;;;32.00;;
55455;SDS011;63021;52.836;6.376;2024-03-22T00:55:38;51.28;;;31.73;;
55455;SDS011;63021;52.836;6.376;2024-03-22T00:58:03;49.53;;;32.72;;
55455;SDS011;63021;52.836;6.376;2024-03-22T01:00:32;54.97;;;32.80;;
55455;SDS011;63021;52.836;6.376;2024-03-22T01:03:01;48.53;;;33.63;;
55455;SDS011;63021;52.836;6.376;2024-03-22T01:05:27;50.58;;;33.75;;
55455;SDS011;63021;52.836;6.376;2024-03-22T01:08:03;48.47;;;33.67;;
55455;SDS011;63021;52.836;6.376;2024-03-22T01:10:32;56.17;;;34.58;;
55455;SDS011;63021;52.836;6.376;2024-03-22T01:12:58;50.30;;;33.20;;
55455;SDS011;63021;52.836;6.376;2024-03-22T01:15:26;57.72;;;34.85;;
55455;SDS011;63021;52.836;6.376;2024-03-22T01:17:52;53.28;;;34.88;;
55455;SDS011;63021;52.836;6.376;2024-03-22T01:20:18;52.83;;;34.33;;
55455;SDS011;63021;52.836;6.376;2024-03-22T01:22:43;58.35;;;36.38;;
55455;SDS011;63021;52.836;6.376;2024-03-22T01:25:11;54.08;;;35.90;;
55455;SDS011;63021;52.836;6.376;2024-03-22T01:27:37;55.17;;;35.20;;
55455;SDS011;63021;52.836;6.376;2024-03-22T01:30:02;55.88;;;37.67;;
55455;SDS011;63021;52.836;6.376;2024-03-22T01:32:28;54.85;;;36.72;;
55455;SDS011;63021;52.836;6.376;2024-03-22T01:34:53;58.70;;;38.22;;
55455;SDS011;63021;52.836;6.376;2024-03-22T01:37:19;54.67;;;35.40;;
55455;SDS011;63021;52.836;6.376;2024-03-22T01:39:44;58.45;;;36.17;;
55455;SDS011;63021;52.836;6.376;2024-03-22T01:42:10;56.08;;;35.58;;
55455;SDS011;63021;52.836;6.376;2024-03-22T01:44:35;55.65;;;35.65;;
55455;SDS011;63021;52.836;6.376;2024-03-22T01:47:01;55.88;;;38.28;;
55455;SDS011;63021;52.836;6.376;2024-03-22T01:49:27;55.17;;;36.75;;
55455;SDS011;63021;52.836;6.376;2024-03-22T01:51:53;56.50;;;37.20;;
55455;SDS011;63021;52.836;6.376;2024-03-22T01:54:21;57.30;;;36.08;;
55455;SDS011;63021;52.836;6.376;2024-03-22T01:56:49;56.10;;;37.00;;
55455;SDS011;63021;52.836;6.376;2024-03-22T01:59:15;60.30;;;37.20;;
55455;SDS011;63021;52.836;6.376;2024-03-22T02:01:43;60.80;;;38.72;;
55455;SDS011;63021;52.836;6.376;2024-03-22T02:04:14;55.58;;;35.67;;
55455;SDS011;63021;52.836;6.376;2024-03-22T02:06:43;60.97;;;38.85;;
55455;SDS011;63021;52.836;6.376;2024-03-22T02:09:08;62.17;;;39.10;;
55455;SDS011;63021;52.836;6.376;2024-03-22T02:11:37;63.03;;;39.33;;
55455;SDS011;63021;52.836;6.376;2024-03-22T02:14:04;58.25;;;37.10;;
55455;SDS011;63021;52.836;6.376;2024-03-22T02:16:30;64.57;;;40.67;;
55455;SDS011;63021;52.836;6.376;2024-03-22T02:18:59;57.10;;;36.97;;
55455;SDS011;63021;52.836;6.376;2024-03-22T02:21:24;63.13;;;39.10;;
55455;SDS011;63021;52.836;6.376;2024-03-22T02:23:50;61.70;;;40.15;;
55455;SDS011;63021;52.836;6.376;2024-03-22T02:26:15;64.30;;;39.17;;
55455;SDS011;63021;52.836;6.376;2024-03-22T02:28:40;61.78;;;37.95;;
55455;SDS011;63021;52.836;6.376;2024-03-22T02:31:06;66.95;;;40.05;;
55455;SDS011;63021;52.836;6.376;2024-03-22T02:33:31;61.45;;;38.67;;
55455;SDS011;63021;52.836;6.376;2024-03-22T02:36:00;62.10;;;38.88;;
55455;SDS011;63021;52.836;6.376;2024-03-22T02:38:33;68.70;;;39.17;;
55455;SDS011;63021;52.836;6.376;2024-03-22T02:40:58;63.13;;;37.70;;
55455;SDS011;63021;52.836;6.376;2024-03-22T02:43:24;63.55;;;38.63;;
55455;SDS011;63021;52.836;6.376;2024-03-22T02:45:50;63.65;;;37.78;;
55455;SDS011;63021;52.836;6.376;2024-03-22T02:48:18;62.15;;;39.10;;
55455;SDS011;63021;52.836;6.376;2024-03-22T02:50:46;66.43;;;39.85;;
55455;SDS011;63021;52.836;6.376;2024-03-22T02:53:14;69.10;;;38.85;;
55455;SDS011;63021;52.836;6.376;2024-03-22T02:55:42;67.72;;;40.10;;
55455;SDS011;63021;52.836;6.376;2024-03-22T02:58:08;67.95;;;40.63;;
55455;SDS011;63021;52.836;6.376;2024-03-22T03:00:40;64.65;;;39.90;;
55455;SDS011;63021;52.836;6.376;2024-03-22T03:03:05;64.25;;;38.17;;
55455;SDS011;63021;52.836;6.376;2024-03-22T03:05:43;63.10;;;38.28;;
55455;SDS011;63021;52.836;6.376;2024-03-22T03:08:09;63.88;;;39.78;;
55455;SDS011;63021;52.836;6.376;2024-03-22T03:10:35;64.15;;;39.08;;
55455;SDS011;63021;52.836;6.376;2024-03-22T03:13:10;66.30;;;39.13;;
55455;SDS011;63021;52.836;6.376;2024-03-22T03:15:36;65.75;;;39.25;;
55455;SDS011;63021;52.836;6.376;2024-03-22T03:18:01;64.13;;;39.53;;
55455;SDS011;63021;52.836;6.376;2024-03-22T03:20:27;63.13;;;40.33;;
55455;SDS011;63021;52.836;6.376;2024-03-22T03:22:52;60.45;;;37.78;;
55455;SDS011;63021;52.836;6.376;2024-03-22T03:25:18;63.92;;;39.50;;
55455;SDS011;63021;52.836;6.376;2024-03-22T03:27:45;64.63;;;37.88;;
55455;SDS011;63021;52.836;6.376;2024-03-22T03:30:16;66.35;;;38.03;;
55455;SDS011;63021;52.836;6.376;2024-03-22T03:32:44;68.38;;;37.75;;
55455;SDS011;63021;52.836;6.376;2024-03-22T03:35:12;66.90;;;38.90;;
55455;SDS011;63021;52.836;6.376;2024-03-22T03:37:41;62.17;;;35.88;;
55455;SDS011;63021;52.836;6.376;2024-03-22T03:40:07;65.90;;;37.63;;
55455;SDS011;63021;52.836;6.376;2024-03-22T03:42:36;62.15;;;37.90;;
55455;SDS011;63021;52.836;6.376;2024-03-22T03:45:01;65.47;;;39.65;;
55455;SDS011;63021;52.836;6.376;2024-03-22T03:47:30;63.58;;;37.30;;
55455;SDS011;63021;52.836;6.376;2024-03-22T03:49:56;67.70;;;39.67;;
55455;SDS011;63021;52.836;6.376;2024-03-22T03:52:25;63.70;;;37.20;;
55455;SDS011;63021;52.836;6.376;2024-03-22T03:54:53;68.18;;;39.03;;
55455;SDS011;63021;52.836;6.376;2024-03-22T03:57:18;73.25;;;40.30;;
55455;SDS011;63021;52.836;6.376;2024-03-22T03:59:47;62.88;;;37.38;;
55455;SDS011;63021;52.836;6.376;2024-03-22T04:02:12;66.70;;;38.88;;
55455;SDS011;63021;52.836;6.376;2024-03-22T04:04:38;60.75;;;35.97;;
55455;SDS011;63021;52.836;6.376;2024-03-22T04:07:04;70.90;;;38.70;;
55455;SDS011;63021;52.836;6.376;2024-03-22T04:09:33;66.93;;;37.25;;
55455;SDS011;63021;52.836;6.376;2024-03-22T04:12:02;63.72;;;35.03;;
55455;SDS011;63021;52.836;6.376;2024-03-22T04:14:30;68.80;;;36.13;;
55455;SDS011;63021;52.836;6.376;2024-03-22T04:16:55;67.35;;;36.63;;
55455;SDS011;63021;52.836;6.376;2024-03-22T04:19:28;62.22;;;33.08;;
55455;SDS011;63021;52.836;6.376;2024-03-22T04:21:54;71.88;;;38.10;;
55455;SDS011;63021;52.836;6.376;2024-03-22T04:24:20;60.63;;;34.90;;
55455;SDS011;63021;52.836;6.376;2024-03-22T04:26:45;65.15;;;35.92;;
55455;SDS011;63021;52.836;6.376;2024-03-22T04:29:11;66.15;;;36.03;;
55455;SDS011;63021;52.836;6.376;2024-03-22T04:31:36;67.60;;;35.35;;
55455;SDS011;63021;52.836;6.376;2024-03-22T04:34:02;61.72;;;36.63;;
55455;SDS011;63021;52.836;6.376;2024-03-22T04:36:30;63.38;;;35.00;;
55455;SDS011;63021;52.836;6.376;2024-03-22T04:38:55;72.90;;;38.58;;
55455;SDS011;63021;52.836;6.376;2024-03-22T04:41:21;71.32;;;34.33;;
55455;SDS011;63021;52.836;6.376;2024-03-22T04:43:46;71.75;;;36.78;;
55455;SDS011;63021;52.836;6.376;2024-03-22T04:46:11;67.57;;;35.65;;
55455;SDS011;63021;52.836;6.376;2024-03-22T04:48:37;62.00;;;34.15;;
55455;SDS011;63021;52.836;6.376;2024-03-22T04:51:05;63.53;;;35.60;;
55455;SDS011;63021;52.836;6.376;2024-03-22T04:53:30;67.03;;;34.83;;
55455;SDS011;63021;52.836;6.376;2024-03-22T04:55:56;68.65;;;36.22;;
55455;SDS011;63021;52.836;6.376;2024-03-22T04:58:24;63.60;;;34.40;;
55455;SDS011;63021;52.836;6.376;2024-03-22T05:00:56;70.47;;;38.45;;
55455;SDS011;63021;52.836;6.376;2024-03-22T05:03:23;68.38;;;34.17;;
55455;SDS011;63021;52.836;6.376;2024-03-22T05:05:49;67.60;;;35.88;;
55455;SDS011;63021;52.836;6.376;2024-03-22T05:08:26;63.80;;;34.50;;
55455;SDS011;63021;52.836;6.376;2024-03-22T05:14:31;64.47;;;33.13;;
55455;SDS011;63021;52.836;6.376;2024-03-22T05:16:56;62.47;;;35.10;;
55455;SDS011;63021;52.836;6.376;2024-03-22T05:19:22;69.60;;;36.50;;
55455;SDS011;63021;52.836;6.376;2024-03-22T05:21:47;70.32;;;35.67;;
55455;SDS011;63021;52.836;6.376;2024-03-22T05:24:13;62.53;;;35.22;;
55455;SDS011;63021;52.836;6.376;2024-03-22T05:26:38;60.67;;;33.58;;
55455;SDS011;63021;52.836;6.376;2024-03-22T05:29:04;68.70;;;35.33;;
55455;SDS011;63021;52.836;6.376;2024-03-22T05:31:29;67.13;;;33.88;;
55455;SDS011;63021;52.836;6.376;2024-03-22T05:33:56;65.38;;;33.58;;
55455;SDS011;63021;52.836;6.376;2024-03-22T05:36:30;60.47;;;32.70;;
55455;SDS011;63021;52.836;6.376;2024-03-22T05:38:56;62.60;;;32.55;;
55455;SDS011;63021;52.836;6.376;2024-03-22T05:41:21;62.30;;;32.90;;
55455;SDS011;63021;52.836;6.376;2024-03-22T05:43:54;66.72;;;33.55;;
55455;SDS011;63021;52.836;6.376;2024-03-22T05:46:20;64.32;;;34.25;;
55455;SDS011;63021;52.836;6.376;2024-03-22T05:48:45;63.25;;;32.80;;
55455;SDS011;63021;52.836;6.376;2024-03-22T05:51:34;58.75;;;31.83;;
55455;SDS011;63021;52.836;6.376;2024-03-22T05:53:59;63.00;;;31.83;;
55455;SDS011;63021;52.836;6.376;2024-03-22T05:56:25;58.03;;;31.90;;
55455;SDS011;63021;52.836;6.376;2024-03-22T05:58:51;69.13;;;33.40;;
55455;SDS011;63021;52.836;6.376;2024-03-22T06:01:16;64.93;;;32.53;;
55455;SDS011;63021;52.836;6.376;2024-03-22T06:03:41;62.72;;;31.55;;
55455;SDS011;63021;52.836;6.376;2024-03-22T06:06:07;68.32;;;35.35;;
55455;SDS011;63021;52.836;6.376;2024-03-22T06:08:33;59.03;;;32.05;;
55455;SDS011;63021;52.836;6.376;2024-03-22T06:11:00;63.05;;;32.00;;
55455;SDS011;63021;52.836;6.376;2024-03-22T06:13:28;58.38;;;32.50;;
55455;SDS011;63021;52.836;6.376;2024-03-22T06:15:58;57.75;;;30.33;;
55455;SDS011;63021;52.836;6.376;2024-03-22T06:18:24;56.63;;;32.50;;
55455;SDS011;63021;52.836;6.376;2024-03-22T06:20:52;57.60;;;30.15;;
55455;SDS011;63021;52.836;6.376;2024-03-22T06:23:19;53.97;;;30.75;;
55455;SDS011;63021;52.836;6.376;2024-03-22T06:25:57;48.80;;;27.98;;
55455;SDS011;63021;52.836;6.376;2024-03-22T06:28:28;60.15;;;30.73;;
55455;SDS011;63021;52.836;6.376;2024-03-22T06:30:54;53.85;;;29.42;;
55455;SDS011;63021;52.836;6.376;2024-03-22T06:33:20;49.35;;;28.25;;
55455;SDS011;63021;52.836;6.376;2024-03-22T06:35:49;51.15;;;28.45;;
55455;SDS011;63021;52.836;6.376;2024-03-22T06:38:14;50.35;;;29.50;;
55455;SDS011;63021;52.836;6.376;2024-03-22T06:40:40;55.80;;;31.85;;
55455;SDS011;63021;52.836;6.376;2024-03-22T06:43:08;54.22;;;28.35;;
55455;SDS011;63021;52.836;6.376;2024-03-22T06:45:37;49.35;;;28.50;;
55455;SDS011;63021;52.836;6.376;2024-03-22T06:48:02;51.28;;;29.02;;
55455;SDS011;63021;52.836;6.376;2024-03-22T06:50:28;54.28;;;27.55;;
55455;SDS011;63021;52.836;6.376;2024-03-22T06:53:04;53.55;;;29.58;;
55455;SDS011;63021;52.836;6.376;2024-03-22T06:55:37;49.38;;;28.08;;
55455;SDS011;63021;52.836;6.376;2024-03-22T06:58:05;47.20;;;27.90;;
55455;SDS011;63021;52.836;6.376;2024-03-22T07:00:30;49.80;;;26.73;;
55455;SDS011;63021;52.836;6.376;2024-03-22T07:02:59;50.28;;;28.50;;
55455;SDS011;63021;52.836;6.376;2024-03-22T07:05:27;47.47;;;26.83;;
55455;SDS011;63021;52.836;6.376;2024-03-22T07:07:52;43.80;;;24.02;;
55455;SDS011;63021;52.836;6.376;2024-03-22T07:10:24;48.40;;;24.55;;
55455;SDS011;63021;52.836;6.376;2024-03-22T07:12:53;44.22;;;24.17;;
55455;SDS011;63021;52.836;6.376;2024-03-22T07:15:24;46.83;;;22.55;;
55455;SDS011;63021;52.836;6.376;2024-03-22T07:18:11;42.10;;;20.50;;
55455;SDS011;63021;52.836;6.376;2024-03-22T07:20:40;36.90;;;19.52;;
55455;SDS011;63021;52.836;6.376;2024-03-22T07:23:16;49.15;;;20.42;;
55455;SDS011;63021;52.836;6.376;2024-03-22T07:25:42;43.55;;;20.42;;
55455;SDS011;63021;52.836;6.376;2024-03-22T07:28:10;44.13;;;19.38;;
55455;SDS011;63021;52.836;6.376;2024-03-22T07:30:36;44.80;;;19.77;;
55455;SDS011;63021;52.836;6.376;2024-03-22T07:33:02;35.45;;;19.83;;
55455;SDS011;63021;52.836;6.376;2024-03-22T07:35:34;34.03;;;17.65;;
55455;SDS011;63021;52.836;6.376;2024-03-22T07:38:03;37.40;;;18.20;;
55455;SDS011;63021;52.836;6.376;2024-03-22T07:40:30;37.50;;;17.95;;
55455;SDS011;63021;52.836;6.376;2024-03-22T07:42:56;36.75;;;17.58;;
55455;SDS011;63021;52.836;6.376;2024-03-22T07:45:21;33.45;;;16.52;;
55455;SDS011;63021;52.836;6.376;2024-03-22T07:47:47;37.58;;;16.45;;
55455;SDS011;63021;52.836;6.376;2024-03-22T07:50:13;38.75;;;18.35;;
55455;SDS011;63021;52.836;6.376;2024-03-22T07:52:42;30.83;;;18.15;;
55455;SDS011;63021;52.836;6.376;2024-03-22T07:55:10;40.65;;;17.70;;
55455;SDS011;63021;52.836;6.376;2024-03-22T07:57:36;37.08;;;18.25;;
55455;SDS011;63021;52.836;6.376;2024-03-22T08:00:01;35.28;;;16.73;;
55455;SDS011;63021;52.836;6.376;2024-03-22T08:02:29;34.63;;;17.65;;
55455;SDS011;63021;52.836;6.376;2024-03-22T08:04:55;43.75;;;17.45;;
55455;SDS011;63021;52.836;6.376;2024-03-22T08:07:23;27.67;;;14.75;;
55455;SDS011;63021;52.836;6.376;2024-03-22T08:09:57;32.88;;;16.90;;
55455;SDS011;63021;52.836;6.376;2024-03-22T08:12:27;33.33;;;15.05;;
55455;SDS011;63021;52.836;6.376;2024-03-22T08:14:55;30.80;;;14.60;;
55455;SDS011;63021;52.836;6.376;2024-03-22T08:17:21;28.05;;;14.90;;
55455;SDS011;63021;52.836;6.376;2024-03-22T08:19:46;32.25;;;16.20;;
55455;SDS011;63021;52.836;6.376;2024-03-22T08:22:15;28.13;;;15.15;;
55455;SDS011;63021;52.836;6.376;2024-03-22T08:24:44;29.45;;;15.57;;
55455;SDS011;63021;52.836;6.376;2024-03-22T08:27:12;32.17;;;15.63;;
55455;SDS011;63021;52.836;6.376;2024-03-22T08:29:40;33.80;;;15.65;;
55455;SDS011;63021;52.836;6.376;2024-03-22T08:32:11;28.10;;;16.48;;
55455;SDS011;63021;52.836;6.376;2024-03-22T08:34:50;29.90;;;15.07;;
55455;SDS011;63021;52.836;6.376;2024-03-22T08:37:18;26.23;;;14.63;;
55455;SDS011;63021;52.836;6.376;2024-03-22T08:39:43;34.28;;;15.07;;
55455;SDS011;63021;52.836;6.376;2024-03-22T08:42:09;30.55;;;15.88;;
55455;SDS011;63021;52.836;6.376;2024-03-22T08:44:49;32.75;;;16.90;;
55455;SDS011;63021;52.836;6.376;2024-03-22T08:47:14;32.08;;;14.55;;
55455;SDS011;63021;52.836;6.376;2024-03-22T08:49:40;31.42;;;15.32;;
55455;SDS011;63021;52.836;6.376;2024-03-22T08:52:08;29.35;;;15.82;;
55455;SDS011;63021;52.836;6.376;2024-03-22T08:54:33;36.15;;;15.80;;
55455;SDS011;63021;52.836;6.376;2024-03-22T08:57:01;33.20;;;15.70;;
55455;SDS011;63021;52.836;6.376;2024-03-22T08:59:30;38.38;;;15.43;;
55455;SDS011;63021;52.836;6.376;2024-03-22T09:02:09;35.22;;;16.55;;
55455;SDS011;63021;52.836;6.376;2024-03-22T09:04:39;30.45;;;15.40;;
55455;SDS011;63021;52.836;6.376;2024-03-22T09:07:04;31.77;;;16.13;;
55455;SDS011;63021;52.836;6.376;2024-03-22T09:09:33;27.05;;;15.60;;
55455;SDS011;63021;52.836;6.376;2024-03-22T09:12:02;26.80;;;14.88;;
55455;SDS011;63021;52.836;6.376;2024-03-22T09:14:30;30.95;;;17.02;;
55455;SDS011;63021;52.836;6.376;2024-03-22T09:17:05;25.05;;;14.02;;
55455;SDS011;63021;52.836;6.376;2024-03-22T09:19:35;25.45;;;13.82;;
55455;SDS011;63021;52.836;6.376;2024-03-22T09:22:03;27.25;;;14.13;;
55455;SDS011;63021;52.836;6.376;2024-03-22T09:24:42;29.52;;;14.45;;
55455;SDS011;63021;52.836;6.376;2024-03-22T09:27:10;27.10;;;14.60;;
55455;SDS011;63021;52.836;6.376;2024-03-22T09:29:41;21.92;;;13.40;;
55455;SDS011;63021;52.836;6.376;2024-03-22T09:32:11;22.15;;;14.13;;
55455;SDS011;63021;52.836;6.376;2024-03-22T09:34:39;22.75;;;13.27;;
55455;SDS011;63021;52.836;6.376;2024-03-22T09:37:05;23.20;;;13.60;;
55455;SDS011;63021;52.836;6.376;2024-03-22T09:39:31;19.98;;;13.10;;
55455;SDS011;63021;52.836;6.376;2024-03-22T09:41:57;18.92;;;12.45;;
55455;SDS011;63021;52.836;6.376;2024-03-22T09:44:30;24.02;;;12.65;;
55455;SDS011;63021;52.836;6.376;2024-03-22T09:46:57;20.38;;;13.23;;
55455;SDS011;63021;52.836;6.376;2024-03-22T09:49:26;22.42;;;13.13;;
55455;SDS011;63021;52.836;6.376;2024-03-22T09:51:55;22.85;;;13.40;;
55455;SDS011;63021;52.836;6.376;2024-03-22T09:54:22;26.70;;;13.95;;
55455;SDS011;63021;52.836;6.376;2024-03-22T09:56:50;19.70;;;12.65;;
55455;SDS011;63021;52.836;6.376;2024-03-22T09:59:16;22.42;;;13.23;;
55455;SDS011;63021;52.836;6.376;2024-03-22T10:01:41;20.08;;;12.32;;
55455;SDS011;63021;52.836;6.376;2024-03-22T10:04:08;21.45;;;11.90;;
55455;SDS011;63021;52.836;6.376;2024-03-22T10:06:34;16.42;;;11.52;;
55455;SDS011;63021;52.836;6.376;2024-03-22T10:09:00;16.27;;;11.90;;
55455;SDS011;63021;52.836;6.376;2024-03-22T10:11:27;19.33;;;12.05;;
55455;SDS011;63021;52.836;6.376;2024-03-22T10:13:52;18.88;;;11.68;;
55455;SDS011;63021;52.836;6.376;2024-03-22T10:16:20;17.85;;;10.75;;
55455;SDS011;63021;52.836;6.376;2024-03-22T10:18:46;17.50;;;11.55;;
55455;SDS011;63021;52.836;6.376;2024-03-22T10:21:16;16.95;;;11.07;;
55455;SDS011;63021;52.836;6.376;2024-03-22T10:23:46;19.27;;;11.07;;
55455;SDS011;63021;52.836;6.376;2024-03-22T10:26:13;18.00;;;10.40;;
55455;SDS011;63021;52.836;6.376;2024-03-22T10:28:45;15.85;;;9.68;;
55455;SDS011;63021;52.836;6.376;2024-03-22T10:31:12;14.13;;;10.10;;
55455;SDS011;63021;52.836;6.376;2024-03-22T10:33:39;12.45;;;9.60;;
55455;SDS011;63021;52.836;6.376;2024-03-22T10:36:05;16.60;;;9.70;;
55455;SDS011;63021;52.836;6.376;2024-03-22T10:38:31;16.90;;;9.82;;
55455;SDS011;63021;52.836;6.376;2024-03-22T10:40:58;14.10;;;9.93;;
55455;SDS011;63021;52.836;6.376;2024-03-22T10:43:25;13.77;;;9.43;;
55455;SDS011;63021;52.836;6.376;2024-03-22T10:45:51;14.80;;;9.32;;
55455;SDS011;63021;52.836;6.376;2024-03-22T10:48:20;9.50;;;7.60;;
55455;SDS011;63021;52.836;6.376;2024-03-22T10:50:46;11.80;;;7.68;;
55455;SDS011;63021;52.836;6.376;2024-03-22T10:53:21;12.60;;;7.95;;
55455;SDS011;63021;52.836;6.376;2024-03-22T10:55:50;13.55;;;8.38;;
55455;SDS011;63021;52.836;6.376;2024-03-22T10:58:18;9.63;;;7.50;;
55455;SDS011;63021;52.836;6.376;2024-03-22T11:00:47;10.80;;;7.68;;
55455;SDS011;63021;52.836;6.376;2024-03-22T11:03:16;9.82;;;7.05;;
55455;SDS011;63021;52.836;6.376;2024-03-22T11:05:47;11.63;;;7.43;;
55455;SDS011;63021;52.836;6.376;2024-03-22T11:08:23;10.63;;;7.40;;
55455;SDS011;63021;52.836;6.376;2024-03-22T11:10:50;9.48;;;7.30;;
55455;SDS011;63021;52.836;6.376;2024-03-22T11:13:18;12.32;;;6.55;;
55455;SDS011;63021;52.836;6.376;2024-03-22T11:15:47;8.73;;;6.57;;
55455;SDS011;63021;52.836;6.376;2024-03-22T11:18:13;7.30;;;6.38;;
55455;SDS011;63021;52.836;6.376;2024-03-22T11:20:38;9.90;;;6.15;;
55455;SDS011;63021;52.836;6.376;2024-03-22T11:23:04;9.05;;;6.28;;
55455;SDS011;63021;52.836;6.376;2024-03-22T11:25:33;6.90;;;5.82;;
55455;SDS011;63021;52.836;6.376;2024-03-22T11:27:59;7.47;;;5.80;;
55455;SDS011;63021;52.836;6.376;2024-03-22T11:30:31;10.60;;;6.28;;
55455;SDS011;63021;52.836;6.376;2024-03-22T11:33:02;8.10;;;6.47;;
55455;SDS011;63021;52.836;6.376;2024-03-22T11:35:28;7.72;;;5.22;;
55455;SDS011;63021;52.836;6.376;2024-03-22T11:37:53;6.43;;;4.53;;
55455;SDS011;63021;52.836;6.376;2024-03-22T11:40:19;6.20;;;5.07;;
55455;SDS011;63021;52.836;6.376;2024-03-22T11:42:45;6.70;;;4.85;;
55455;SDS011;63021;52.836;6.376;2024-03-22T11:45:13;6.20;;;4.63;;
55455;SDS011;63021;52.836;6.376;2024-03-22T11:47:41;10.05;;;5.70;;
55455;SDS011;63021;52.836;6.376;2024-03-22T11:50:07;6.43;;;4.85;;
55455;SDS011;63021;52.836;6.376;2024-03-22T11:52:34;8.05;;;4.80;;
55455;SDS011;63021;52.836;6.376;2024-03-22T11:55:04;6.63;;;5.30;;
55455;SDS011;63021;52.836;6.376;2024-03-22T11:57:37;6.80;;;5.68;;
55455;SDS011;63021;52.836;6.376;2024-03-22T12:00:03;7.70;;;4.30;;
55455;SDS011;63021;52.836;6.376;2024-03-22T12:02:33;8.38;;;4.93;;
55455;SDS011;63021;52.836;6.376;2024-03-22T12:04:59;6.43;;;4.63;;
55455;SDS011;63021;52.836;6.376;2024-03-22T12:07:25;8.00;;;4.03;;
55455;SDS011;63021;52.836;6.376;2024-03-22T12:09:51;5.43;;;4.15;;
55455;SDS011;63021;52.836;6.376;2024-03-22T12:12:17;5.47;;;4.03;;
55455;SDS011;63021;52.836;6.376;2024-03-22T12:14:42;7.15;;;3.55;;
55455;SDS011;63021;52.836;6.376;2024-03-22T12:17:11;5.88;;;3.80;;
55455;SDS011;63021;52.836;6.376;2024-03-22T12:19:39;4.93;;;3.70;;
55455;SDS011;63021;52.836;6.376;2024-03-22T12:22:05;4.53;;;3.00;;
55455;SDS011;63021;52.836;6.376;2024-03-22T12:24:32;3.90;;;2.72;;
55455;SDS011;63021;52.836;6.376;2024-03-22T12:26:58;6.20;;;2.35;;
55455;SDS011;63021;52.836;6.376;2024-03-22T12:29:24;7.55;;;3.30;;
55455;SDS011;63021;52.836;6.376;2024-03-22T12:31:50;6.00;;;2.50;;
55455;SDS011;63021;52.836;6.376;2024-03-22T12:34:16;7.43;;;3.05;;
55455;SDS011;63021;52.836;6.376;2024-03-22T12:36:41;9.32;;;3.30;;
55455;SDS011;63021;52.836;6.376;2024-03-22T12:39:07;6.72;;;4.22;;
55455;SDS011;63021;52.836;6.376;2024-03-22T12:41:34;5.50;;;3.15;;
55455;SDS011;63021;52.836;6.376;2024-03-22T12:44:00;6.40;;;3.10;;
55455;SDS011;63021;52.836;6.376;2024-03-22T12:46:25;7.70;;;3.20;;
55455;SDS011;63021;52.836;6.376;2024-03-22T12:48:55;11.07;;;3.10;;
55455;SDS011;63021;52.836;6.376;2024-03-22T12:51:20;8.02;;;4.28;;
55455;SDS011;63021;52.836;6.376;2024-03-22T12:53:46;10.05;;;3.15;;
55455;SDS011;63021;52.836;6.376;2024-03-22T12:56:12;10.43;;;3.42;;
55455;SDS011;63021;52.836;6.376;2024-03-22T12:58:38;8.20;;;3.55;;
55455;SDS011;63021;52.836;6.376;2024-03-22T13:01:06;7.80;;;3.80;;
55455;SDS011;63021;52.836;6.376;2024-03-22T13:03:35;7.43;;;3.38;;
55455;SDS011;63021;52.836;6.376;2024-03-22T13:06:02;12.02;;;3.78;;
55455;SDS011;63021;52.836;6.376;2024-03-22T13:08:28;11.50;;;5.32;;
55455;SDS011;63021;52.836;6.376;2024-03-22T13:10:53;10.43;;;3.75;;
55455;SDS011;63021;52.836;6.376;2024-03-22T13:13:18;16.95;;;3.97;;
55455;SDS011;63021;52.836;6.376;2024-03-22T13:15:44;8.55;;;3.85;;
55455;SDS011;63021;52.836;6.376;2024-03-22T13:18:11;10.30;;;3.95;;
55455;SDS011;63021;52.836;6.376;2024-03-22T13:20:37;8.43;;;4.40;;
55455;SDS011;63021;52.836;6.376;2024-03-22T13:23:04;9.10;;;4.63;;
55455;SDS011;63021;52.836;6.376;2024-03-22T13:25:30;11.52;;;5.10;;
55455;SDS011;63021;52.836;6.376;2024-03-22T13:27:55;15.38;;;4.57;;
55455;SDS011;63021;52.836;6.376;2024-03-22T13:30:21;9.93;;;4.57;;
55455;SDS011;63021;52.836;6.376;2024-03-22T13:32:46;7.53;;;4.72;;
55455;SDS011;63021;52.836;6.376;2024-03-22T13:35:12;13.40;;;5.00;;
55455;SDS011;63021;52.836;6.376;2024-03-22T13:37:38;13.02;;;5.00;;
55455;SDS011;63021;52.836;6.376;2024-03-22T13:40:07;13.35;;;5.65;;
55455;SDS011;63021;52.836;6.376;2024-03-22T13:42:34;15.35;;;5.50;;
55455;SDS011;63021;52.836;6.376;2024-03-22T13:44:59;9.43;;;5.32;;
55455;SDS011;63021;52.836;6.376;2024-03-22T13:47:24;15.15;;;5.78;;
55455;SDS011;63021;52.836;6.376;2024-03-22T13:49:53;17.17;;;5.88;;
55455;SDS011;63021;52.836;6.376;2024-03-22T13:52:18;13.43;;;5.85;;
55455;SDS011;63021;52.836;6.376;2024-03-22T13:54:45;14.18;;;6.15;;
55455;SDS011;63021;52.836;6.376;2024-03-22T13:57:11;14.10;;;7.25;;
55455;SDS011;63021;52.836;6.376;2024-03-22T13:59:36;15.75;;;6.97;;
55455;SDS011;63021;52.836;6.376;2024-03-22T14:02:02;13.65;;;6.63;;
55455;SDS011;63021;52.836;6.376;2024-03-22T14:04:28;23.48;;;8.65;;
55455;SDS011;63021;52.836;6.376;2024-03-22T14:06:54;18.20;;;7.38;;
55455;SDS011;63021;52.836;6.376;2024-03-22T14:09:20;12.95;;;7.13;;
55455;SDS011;63021;52.836;6.376;2024-03-22T14:11:45;22.05;;;6.43;;
55455;SDS011;63021;52.836;6.376;2024-03-22T14:14:13;22.90;;;6.10;;
55455;SDS011;63021;52.836;6.376;2024-03-22T14:16:42;20.90;;;6.45;;
55455;SDS011;63021;52.836;6.376;2024-03-22T14:19:11;19.23;;;6.68;;
55455;SDS011;63021;52.836;6.376;2024-03-22T14:21:36;17.35;;;6.05;;
55455;SDS011;63021;52.836;6.376;2024-03-22T14:24:03;16.33;;;6.32;;
55455;SDS011;63021;52.836;6.376;2024-03-22T14:26:29;16.63;;;5.68;;
55455;SDS011;63021;52.836;6.376;2024-03-22T14:28:55;19.08;;;6.43;;
55455;SDS011;63021;52.836;6.376;2024-03-22T14:31:20;18.35;;;6.35;;